Time;durP1;ratioP1;P1;durP2;ratioP2;P2;SDS_P1;SDS_P2;PMS_P1;PMS_P2;Temp;Humidity;BMP_temperature;BMP_pressure;BME280_temperature;BME280_humidity;BME280_pressure;Samples;Min_cycle;Max_cycle;Signal;HPM_P1;HPM_P2
2023/12/11 00:01:40;;;;;;;8.45;2.20;;;8.70;99.90;;;;;;5077860;28;20044;-81
2023/12/11 00:04:06;;;;;;;17.02;1.70;;;8.70;99.90;;;;;;5066312;28;20082;-81
2023/12/11 00:06:32;;;;;;;9.38;1.48;;;8.70;99.90;;;;;;5058063;28;20525;-82
2023/12/11 00:08:58;;;;;;;7.53;1.60;;;8.70;99.90;;;;;;5078231;28;20075;-82
2023/12/11 00:11:24;;;;;;;10.65;1.77;;;8.70;99.90;;;;;;5054814;28;20044;-82
2023/12/11 00:13:49;;;;;;;8.32;2.38;;;8.70;99.90;;;;;;5053604;28;20043;-82
2023/12/11 00:16:19;;;;;;;15.70;2.40;;;8.70;99.90;;;;;;5059698;28;20040;-81
2023/12/11 00:18:45;;;;;;;16.17;1.90;;;8.70;99.90;;;;;;5077445;28;20040;-81
2023/12/11 00:21:11;;;;;;;7.70;1.30;;;8.70;99.90;;;;;;5058268;28;20036;-81
2023/12/11 00:23:37;;;;;;;8.68;1.33;;;8.80;99.90;;;;;;5077573;28;20044;-81
2023/12/11 00:26:03;;;;;;;10.82;1.50;;;8.70;99.90;;;;;;5096661;28;20036;-81
2023/12/11 00:28:29;;;;;;;3.25;1.17;;;8.80;99.90;;;;;;5058445;28;20119;-81
2023/12/11 00:30:54;;;;;;;9.57;2.25;;;8.80;99.90;;;;;;5062374;28;20092;-81
2023/12/11 00:33:20;;;;;;;9.65;1.98;;;8.80;99.90;;;;;;5077287;28;20036;-81
2023/12/11 00:35:46;;;;;;;7.43;0.95;;;8.90;99.90;;;;;;5074421;28;20040;-81
2023/12/11 00:38:12;;;;;;;7.88;1.48;;;8.90;99.90;;;;;;5063925;28;20044;-81
2023/12/11 00:40:38;;;;;;;9.90;2.75;;;8.90;99.90;;;;;;5048170;28;20032;-81
2023/12/11 00:43:04;;;;;;;11.77;1.48;;;9.00;99.90;;;;;;5053015;28;20031;-81
2023/12/11 00:45:30;;;;;;;8.55;1.45;;;9.00;99.90;;;;;;5081940;28;20502;-82
2023/12/11 00:47:55;;;;;;;10.90;1.65;;;9.00;99.90;;;;;;5062772;28;20048;-82
2023/12/11 00:50:21;;;;;;;7.70;2.03;;;9.00;99.90;;;;;;5059135;28;20041;-82
2023/12/11 00:52:48;;;;;;;12.57;3.30;;;8.90;99.90;;;;;;5069250;28;20097;-82
2023/12/11 00:55:13;;;;;;;9.60;1.35;;;8.90;99.90;;;;;;5055217;28;20040;-82
2023/12/11 00:57:39;;;;;;;7.03;1.65;;;8.90;99.90;;;;;;5058358;28;20040;-81
2023/12/11 01:00:06;;;;;;;6.93;0.93;;;8.90;99.90;;;;;;5077364;28;20582;-82
2023/12/11 01:02:32;;;;;;;10.57;2.10;;;8.90;99.90;;;;;;5052306;28;20423;-82
2023/12/11 01:04:57;;;;;;;8.85;1.98;;;8.90;99.90;;;;;;5064688;28;20044;-82
2023/12/11 01:07:23;;;;;;;8.68;1.13;;;8.90;99.90;;;;;;5051189;28;20083;-82
2023/12/11 01:09:49;;;;;;;7.50;1.55;;;8.90;99.90;;;;;;5042989;28;20037;-82
2023/12/11 01:12:15;;;;;;;18.98;2.72;;;9.00;99.90;;;;;;5066576;28;20111;-82
2023/12/11 01:14:41;;;;;;;8.15;1.63;;;9.00;99.90;;;;;;5072836;28;20041;-82
2023/12/11 01:17:07;;;;;;;16.40;1.88;;;9.00;99.90;;;;;;5074302;28;20051;-82
2023/12/11 01:19:32;;;;;;;8.52;1.70;;;9.10;99.90;;;;;;5059103;28;20036;-82
2023/12/11 01:21:58;;;;;;;10.30;1.33;;;9.10;99.90;;;;;;5058607;28;20032;-82
2023/12/11 01:24:24;;;;;;;6.05;1.20;;;9.10;99.90;;;;;;5084635;28;20033;-82
2023/12/11 01:26:50;;;;;;;10.85;1.52;;;9.10;99.90;;;;;;5054580;28;20028;-82
2023/12/11 01:29:15;;;;;;;5.00;1.10;;;9.20;99.90;;;;;;5060080;28;20474;-82
2023/12/11 01:31:41;;;;;;;5.97;1.98;;;9.20;99.90;;;;;;5044912;28;20076;-82
2023/12/11 01:34:07;;;;;;;9.00;1.35;;;9.30;99.90;;;;;;5079537;28;20040;-81
2023/12/11 01:36:33;;;;;;;20.20;2.47;;;9.30;99.90;;;;;;5057643;28;20175;-81
2023/12/11 01:38:59;;;;;;;4.28;1.83;;;9.30;99.90;;;;;;5058322;28;20040;-81
2023/12/11 01:41:25;;;;;;;9.57;1.38;;;9.30;99.90;;;;;;5049854;28;20029;-81
2023/12/11 01:43:55;;;;;;;7.68;2.10;;;9.40;99.90;;;;;;5045421;28;20513;-81
2023/12/11 01:46:22;;;;;;;10.30;1.88;;;9.40;99.90;;;;;;5058384;28;20032;-81
2023/12/11 01:48:52;;;;;;;17.02;2.83;;;9.40;99.90;;;;;;5068822;28;20123;-82
2023/12/11 01:51:19;;;;;;;9.35;1.65;;;9.40;99.90;;;;;;5054492;28;20043;-82
2023/12/11 01:53:48;;;;;;;17.02;2.97;;;9.30;99.90;;;;;;5074443;28;20062;-82
2023/12/11 01:56:14;;;;;;;11.93;1.73;;;9.30;99.90;;;;;;5049812;28;20052;-82
2023/12/11 01:58:40;;;;;;;13.48;1.80;;;9.30;99.90;;;;;;5058292;28;20043;-82
2023/12/11 02:01:08;;;;;;;5.70;2.10;;;9.30;99.90;;;;;;5048497;28;20110;-82
2023/12/11 02:03:35;;;;;;;5.57;1.05;;;9.30;99.90;;;;;;5043736;28;20501;-82
2023/12/11 02:06:01;;;;;;;7.55;1.20;;;9.30;99.90;;;;;;5074781;28;20036;-81
2023/12/11 02:08:26;;;;;;;6.10;1.13;;;9.30;99.90;;;;;;5055824;28;20098;-81
2023/12/11 02:10:52;;;;;;;6.38;1.88;;;9.20;99.90;;;;;;5050870;28;20032;-81
2023/12/11 02:13:20;;;;;;;11.57;2.08;;;9.20;99.90;;;;;;5047949;28;20033;-81
2023/12/11 02:15:47;;;;;;;14.57;1.60;;;9.20;99.90;;;;;;5055962;28;20048;-81
2023/12/11 02:18:16;;;;;;;9.48;1.98;;;9.20;99.90;;;;;;5078356;28;20032;-81
2023/12/11 02:20:43;;;;;;;18.95;2.75;;;9.20;99.90;;;;;;5050438;28;20371;-81
2023/12/11 02:23:21;;;;;;;13.90;2.42;;;9.20;99.90;;;;;;5059238;28;20035;-81
2023/12/11 02:26:11;;;;;;;11.77;2.22;;;9.20;99.90;;;;;;5061694;28;20028;-81
2023/12/11 02:28:37;;;;;;;11.40;1.75;;;9.20;99.90;;;;;;5070186;28;20048;-81
2023/12/11 02:31:03;;;;;;;19.50;2.45;;;9.20;99.90;;;;;;5060291;28;20043;-81
2023/12/11 02:33:29;;;;;;;20.30;2.55;;;9.20;99.90;;;;;;5055713;28;20089;-81
2023/12/11 02:35:55;;;;;;;19.85;1.83;;;9.20;99.90;;;;;;5062225;28;20071;-81
2023/12/11 02:38:21;;;;;;;16.48;1.77;;;9.30;99.90;;;;;;5057755;28;20042;-81
2023/12/11 02:40:46;;;;;;;16.60;1.80;;;9.30;99.90;;;;;;5054193;28;20043;-81
2023/12/11 02:43:12;;;;;;;17.85;3.42;;;9.30;99.90;;;;;;5080737;28;20115;-81
2023/12/11 02:45:38;;;;;;;6.97;1.85;;;9.30;99.90;;;;;;5042338;28;20044;-81
2023/12/11 02:48:04;;;;;;;11.68;2.28;;;9.40;99.90;;;;;;5066831;28;20079;-81
2023/12/11 02:50:31;;;;;;;6.80;1.50;;;9.40;99.90;;;;;;5054333;28;20052;-82
2023/12/11 02:52:58;;;;;;;10.52;1.30;;;9.40;99.90;;;;;;5053252;28;20028;-82
2023/12/11 02:55:24;;;;;;;20.80;2.05;;;9.40;99.90;;;;;;5061994;28;20055;-81
2023/12/11 02:57:51;;;;;;;12.75;2.60;;;9.40;99.90;;;;;;5053489;28;20055;-81
2023/12/11 03:00:17;;;;;;;22.42;1.83;;;9.50;99.90;;;;;;5057371;28;20033;-81
2023/12/11 03:02:43;;;;;;;16.30;2.17;;;9.50;99.90;;;;;;5057775;28;20473;-81
2023/12/11 03:05:09;;;;;;;9.90;1.70;;;9.50;99.90;;;;;;5077862;28;20032;-81
2023/12/11 03:07:35;;;;;;;16.60;2.83;;;9.50;99.90;;;;;;5078147;28;20500;-81
2023/12/11 03:10:00;;;;;;;15.20;2.42;;;9.60;99.90;;;;;;5073491;28;20043;-81
2023/12/11 03:12:26;;;;;;;12.43;2.53;;;9.60;99.90;;;;;;5048949;28;20070;-81
2023/12/11 03:14:52;;;;;;;12.13;2.08;;;9.60;99.90;;;;;;5058412;28;20040;-81
2023/12/11 03:17:18;;;;;;;18.52;2.42;;;9.60;99.90;;;;;;5057907;28;20063;-81
2023/12/11 03:19:44;;;;;;;12.70;2.85;;;9.60;99.90;;;;;;5059178;28;20131;-81
2023/12/11 03:22:10;;;;;;;9.43;2.72;;;9.60;99.90;;;;;;5094180;28;20111;-81
2023/12/11 03:24:35;;;;;;;26.10;2.38;;;9.60;99.90;;;;;;5049027;28;20072;-81
2023/12/11 03:27:01;;;;;;;14.82;2.13;;;9.60;99.90;;;;;;5097341;28;20038;-81
2023/12/11 03:29:27;;;;;;;12.25;2.08;;;9.60;99.90;;;;;;5072022;28;20033;-81
2023/12/11 03:31:53;;;;;;;22.45;3.33;;;9.60;99.90;;;;;;5047643;28;20238;-81
2023/12/11 03:34:19;;;;;;;17.23;1.92;;;9.60;99.90;;;;;;5056513;28;20061;-81
2023/12/11 03:36:44;;;;;;;10.65;1.90;;;9.60;99.90;;;;;;5077530;28;20051;-81
2023/12/11 03:39:10;;;;;;;16.48;2.55;;;9.60;99.90;;;;;;5059140;28;20047;-81
2023/12/11 03:41:37;;;;;;;8.38;1.83;;;9.60;99.90;;;;;;5073828;28;20051;-81
2023/12/11 03:44:03;;;;;;;8.73;1.60;;;9.60;99.90;;;;;;5076818;28;20028;-81
2023/12/11 03:46:28;;;;;;;22.05;3.70;;;9.60;99.90;;;;;;5065184;28;20522;-81
2023/12/11 03:48:54;;;;;;;7.68;2.28;;;9.60;99.90;;;;;;5069916;28;20375;-81
2023/12/11 03:51:20;;;;;;;5.00;1.75;;;9.60;99.90;;;;;;5055518;28;20556;-81
2023/12/11 03:53:46;;;;;;;6.43;1.70;;;9.60;99.90;;;;;;5065264;28;20048;-81
2023/12/11 03:56:12;;;;;;;13.00;1.52;;;9.60;99.90;;;;;;5060925;28;20036;-81
2023/12/11 03:58:38;;;;;;;7.00;2.17;;;9.60;99.90;;;;;;5047792;28;20041;-81
2023/12/11 04:01:04;;;;;;;9.23;1.77;;;9.60;99.90;;;;;;5057024;28;20063;-81
2023/12/11 04:03:31;;;;;;;14.43;1.75;;;9.60;99.90;;;;;;5063340;28;20056;-81
2023/12/11 04:05:57;;;;;;;8.98;1.73;;;9.60;99.90;;;;;;5057719;28;20044;-81
2023/12/11 04:08:23;;;;;;;15.93;2.45;;;9.60;99.90;;;;;;5059514;28;20437;-81
2023/12/11 04:10:49;;;;;;;11.48;1.55;;;9.60;99.90;;;;;;5062467;28;20044;-81
2023/12/11 04:13:15;;;;;;;9.15;1.30;;;9.60;99.90;;;;;;5086985;28;20122;-81
2023/12/11 04:15:41;;;;;;;9.73;1.52;;;9.60;99.90;;;;;;5059761;28;20067;-81
2023/12/11 04:18:07;;;;;;;12.07;2.72;;;9.60;99.90;;;;;;5063069;28;20213;-81
2023/12/11 04:20:32;;;;;;;12.38;3.38;;;9.50;99.90;;;;;;5057452;28;20039;-81
2023/12/11 04:22:58;;;;;;;12.38;1.67;;;9.50;99.90;;;;;;5078316;28;20036;-81
2023/12/11 04:25:24;;;;;;;14.15;1.33;;;9.50;99.90;;;;;;5053446;28;20035;-81
2023/12/11 04:27:50;;;;;;;7.20;1.65;;;9.50;99.90;;;;;;5076414;28;20047;-81
2023/12/11 04:30:16;;;;;;;8.68;1.92;;;9.50;99.90;;;;;;5049427;28;20033;-81
2023/12/11 04:32:41;;;;;;;14.95;3.50;;;9.50;99.90;;;;;;5059938;28;20414;-81
2023/12/11 04:35:07;;;;;;;6.07;1.38;;;9.60;99.90;;;;;;5042067;28;20111;-81
2023/12/11 04:37:33;;;;;;;10.25;1.77;;;9.50;99.90;;;;;;5043618;28;20044;-81
2023/12/11 04:39:59;;;;;;;13.73;2.35;;;9.60;99.90;;;;;;5063633;28;20034;-81
2023/12/11 04:42:25;;;;;;;10.57;1.50;;;9.60;99.90;;;;;;5072131;28;20047;-81
2023/12/11 04:44:51;;;;;;;16.23;1.65;;;9.60;99.90;;;;;;5075166;28;20041;-81
2023/12/11 04:47:16;;;;;;;14.68;1.52;;;9.60;99.90;;;;;;5069761;28;20093;-81
2023/12/11 04:49:42;;;;;;;10.93;2.15;;;9.50;99.90;;;;;;5061594;28;20393;-81
2023/12/11 04:52:08;;;;;;;10.50;1.98;;;9.50;99.90;;;;;;5071396;28;20490;-81
2023/12/11 04:54:34;;;;;;;8.65;1.90;;;9.50;99.90;;;;;;5043074;28;20265;-81
2023/12/11 04:57:00;;;;;;;11.80;1.20;;;9.50;99.90;;;;;;5060047;28;20041;-81
2023/12/11 04:59:26;;;;;;;11.13;1.30;;;9.50;99.90;;;;;;5068978;28;20036;-81
2023/12/11 05:01:52;;;;;;;7.90;2.13;;;9.40;99.90;;;;;;5057775;28;20095;-81
2023/12/11 05:04:18;;;;;;;11.55;2.33;;;9.40;99.90;;;;;;5092767;28;20097;-81
2023/12/11 05:06:44;;;;;;;9.23;1.88;;;9.40;99.90;;;;;;5056775;28;20287;-81
2023/12/11 05:09:10;;;;;;;2.53;1.27;;;9.30;99.90;;;;;;5073416;28;20044;-81
2023/12/11 05:11:36;;;;;;;12.95;1.95;;;9.20;99.90;;;;;;5055050;28;20044;-81
2023/12/11 05:14:02;;;;;;;3.80;1.50;;;9.20;99.90;;;;;;5056022;28;20039;-81
2023/12/11 05:16:28;;;;;;;9.77;1.20;;;9.20;99.90;;;;;;5075012;28;20040;-81
2023/12/11 05:18:54;;;;;;;5.72;1.83;;;9.20;99.90;;;;;;5056256;28;20567;-81
2023/12/11 05:21:19;;;;;;;10.30;2.67;;;9.20;99.90;;;;;;5069049;28;20040;-81
2023/12/11 05:23:46;;;;;;;6.10;1.35;;;9.20;99.90;;;;;;5090976;28;20044;-81
2023/12/11 05:26:19;;;;;;;8.18;1.63;;;9.20;99.90;;;;;;5055298;28;20043;-81
2023/12/11 05:28:44;;;;;;;15.02;2.17;;;9.20;99.90;;;;;;5051904;28;20067;-81
2023/12/11 05:31:10;;;;;;;3.75;0.98;;;9.20;99.90;;;;;;5072202;28;20456;-81
2023/12/11 05:33:36;;;;;;;11.23;1.85;;;9.20;99.90;;;;;;5087313;28;20123;-81
2023/12/11 05:36:02;;;;;;;7.95;1.88;;;9.20;99.90;;;;;;5070955;28;20111;-81
2023/12/11 05:38:28;;;;;;;9.55;1.65;;;9.20;99.90;;;;;;5079182;28;20504;-81
2023/12/11 05:40:54;;;;;;;10.10;1.85;;;9.20;99.90;;;;;;5059545;28;20068;-81
2023/12/11 05:43:19;;;;;;;10.57;1.67;;;9.20;99.90;;;;;;5073983;28;20036;-81
2023/12/11 05:45:45;;;;;;;8.30;1.90;;;9.20;99.90;;;;;;5071173;28;20422;-81
2023/12/11 05:48:11;;;;;;;7.07;2.22;;;9.20;99.90;;;;;;5052907;28;20081;-81
2023/12/11 05:50:37;;;;;;;17.13;2.35;;;9.20;99.90;;;;;;5058758;28;20105;-82
2023/12/11 05:53:03;;;;;;;8.30;1.25;;;9.20;99.90;;;;;;5075830;28;20097;-82
2023/12/11 05:55:29;;;;;;;6.03;1.13;;;9.20;99.90;;;;;;5067641;28;20057;-82
2023/12/11 05:57:54;;;;;;;10.00;2.13;;;9.20;99.90;;;;;;5074944;28;20528;-82
2023/12/11 06:00:20;;;;;;;11.18;2.33;;;9.20;99.90;;;;;;5074735;28;20040;-82
2023/12/11 06:02:46;;;;;;;6.10;1.17;;;9.20;99.90;;;;;;5061569;28;20105;-82
2023/12/11 06:05:12;;;;;;;5.10;1.38;;;9.20;99.90;;;;;;5077537;28;20032;-82
2023/12/11 06:07:38;;;;;;;6.78;2.05;;;9.20;99.90;;;;;;5052566;28;20045;-81
2023/12/11 06:10:05;;;;;;;7.32;1.73;;;9.20;99.90;;;;;;5076330;28;20120;-81
2023/12/11 06:12:32;;;;;;;4.88;1.75;;;9.20;99.90;;;;;;5059863;28;20392;-81
2023/12/11 06:14:58;;;;;;;7.85;1.73;;;9.30;99.90;;;;;;5058824;28;20033;-81
2023/12/11 06:17:23;;;;;;;7.10;1.90;;;9.30;99.90;;;;;;5074296;28;20046;-81
2023/12/11 06:19:49;;;;;;;5.78;1.27;;;9.30;99.90;;;;;;5065082;28;20040;-81
2023/12/11 06:22:15;;;;;;;9.93;1.77;;;9.20;99.90;;;;;;5048399;28;20036;-82
2023/12/11 06:24:41;;;;;;;13.57;1.92;;;9.20;99.90;;;;;;5056572;28;20531;-82
2023/12/11 06:27:08;;;;;;;8.98;2.22;;;9.20;99.90;;;;;;5052724;28;20085;-82
2023/12/11 06:29:36;;;;;;;9.50;1.55;;;9.10;99.90;;;;;;5090371;28;20087;-82
2023/12/11 06:32:02;;;;;;;6.18;1.52;;;9.10;99.90;;;;;;5073991;28;20044;-82
2023/12/11 06:34:30;;;;;;;12.50;1.70;;;9.10;99.90;;;;;;5073345;28;20033;-82
2023/12/11 06:36:56;;;;;;;4.53;1.55;;;9.00;99.90;;;;;;5064233;28;20047;-82
2023/12/11 06:39:23;;;;;;;6.10;1.00;;;9.00;99.90;;;;;;5068034;28;20051;-82
2023/12/11 06:41:48;;;;;;;9.20;0.93;;;9.00;99.90;;;;;;5070606;28;20405;-82
2023/12/11 06:44:14;;;;;;;7.63;1.55;;;9.00;99.90;;;;;;5052716;28;20040;-82
2023/12/11 06:46:40;;;;;;;7.93;1.67;;;9.00;99.90;;;;;;5051284;28;20042;-81
2023/12/11 06:49:06;;;;;;;7.63;1.48;;;9.00;99.90;;;;;;5054951;28;20040;-81
2023/12/11 06:51:32;;;;;;;1.20;0.70;;;9.00;99.90;;;;;;5072923;28;20078;-82
2023/12/11 06:53:58;;;;;;;3.47;0.82;;;8.90;99.90;;;;;;5053266;28;20393;-82
2023/12/11 06:56:25;;;;;;;2.58;0.77;;;8.90;99.90;;;;;;5051428;28;20056;-82
2023/12/11 06:58:51;;;;;;;7.07;1.23;;;8.90;99.90;;;;;;5062803;28;20108;-82
2023/12/11 07:01:17;;;;;;;14.38;1.67;;;8.90;99.90;;;;;;5058036;28;20059;-82
2023/12/11 07:03:45;;;;;;;3.60;1.20;;;8.90;99.90;;;;;;5056142;28;20445;-82
2023/12/11 07:06:11;;;;;;;3.88;1.27;;;8.90;99.90;;;;;;5097556;28;20032;-82
2023/12/11 07:08:37;;;;;;;5.43;0.80;;;8.90;99.90;;;;;;5057416;28;20127;-82
2023/12/11 07:11:03;;;;;;;4.65;1.08;;;8.90;99.90;;;;;;5067955;28;20040;-82
2023/12/11 07:13:29;;;;;;;4.88;1.02;;;8.90;99.90;;;;;;5086719;28;20394;-82
2023/12/11 07:15:55;;;;;;;4.05;0.50;;;8.90;99.90;;;;;;5062838;28;20047;-82
2023/12/11 07:18:22;;;;;;;11.40;1.17;;;8.90;99.90;;;;;;5051007;28;20390;-82
2023/12/11 07:20:48;;;;;;;3.95;1.13;;;8.90;99.90;;;;;;5080162;28;20074;-82
2023/12/11 07:23:14;;;;;;;4.82;1.20;;;8.90;99.90;;;;;;5054689;28;20032;-82
2023/12/11 07:25:40;;;;;;;7.95;1.90;;;8.90;99.90;;;;;;5057628;28;20036;-82
2023/12/11 07:28:05;;;;;;;7.22;1.58;;;8.90;99.90;;;;;;5048226;28;20033;-82
2023/12/11 07:30:32;;;;;;;5.10;0.95;;;9.00;99.90;;;;;;5062642;28;20064;-82
2023/12/11 07:32:58;;;;;;;5.75;0.88;;;8.90;99.90;;;;;;5070824;28;20100;-82
2023/12/11 07:35:27;;;;;;;4.05;0.60;;;8.90;99.90;;;;;;5061844;28;20524;-82
2023/12/11 07:37:52;;;;;;;5.43;1.10;;;8.90;99.90;;;;;;5059639;28;20119;-82
2023/12/11 07:40:18;;;;;;;5.97;1.38;;;8.90;99.90;;;;;;5070617;28;20037;-82
2023/12/11 07:42:44;;;;;;;6.50;0.95;;;8.90;99.90;;;;;;5077565;28;20119;-82
2023/12/11 07:45:10;;;;;;;3.75;0.73;;;8.90;99.90;;;;;;5059444;28;20456;-82
2023/12/11 07:47:36;;;;;;;5.57;0.98;;;8.90;99.90;;;;;;5053638;28;20036;-82
2023/12/11 07:50:02;;;;;;;4.25;1.30;;;8.90;99.90;;;;;;5047234;28;20407;-81
2023/12/11 07:52:32;;;;;;;6.00;1.00;;;8.90;99.90;;;;;;5062354;28;20048;-82
2023/12/11 07:54:59;;;;;;;5.97;1.20;;;8.90;99.90;;;;;;5101561;28;20051;-82
2023/12/11 07:57:26;;;;;;;1.83;1.02;;;8.90;99.90;;;;;;5081310;28;20032;-85
2023/12/11 07:59:52;;;;;;;7.50;2.03;;;8.80;99.90;;;;;;5050921;28;20120;-82
2023/12/11 08:02:18;;;;;;;4.15;1.25;;;8.80;99.90;;;;;;5070907;28;20412;-82
2023/12/11 08:04:44;;;;;;;2.20;1.13;;;8.80;99.90;;;;;;5072386;28;20035;-82
2023/12/11 08:07:10;;;;;;;3.53;0.90;;;8.80;99.90;;;;;;5056141;28;20029;-82
2023/12/11 08:09:39;;;;;;;2.38;0.57;;;8.80;99.90;;;;;;5052315;28;20401;-82
2023/12/11 08:12:06;;;;;;;12.32;1.25;;;8.80;99.90;;;;;;5064312;28;20394;-82
2023/12/11 08:14:32;;;;;;;4.80;1.25;;;8.80;99.90;;;;;;5069246;28;20032;-82
2023/12/11 08:16:58;;;;;;;4.53;1.63;;;8.80;99.90;;;;;;5044675;28;20037;-82
2023/12/11 08:19:24;;;;;;;3.25;1.17;;;8.80;99.90;;;;;;5073222;28;20037;-82
2023/12/11 08:21:52;;;;;;;6.88;1.95;;;8.80;99.90;;;;;;5048896;28;20096;-82
2023/12/11 08:24:17;;;;;;;4.80;1.45;;;8.80;99.90;;;;;;5062528;28;20032;-82
2023/12/11 08:26:43;;;;;;;7.10;1.15;;;8.80;99.90;;;;;;5073789;28;20105;-82
2023/12/11 08:29:09;;;;;;;2.35;0.93;;;8.80;99.90;;;;;;5050081;28;20047;-82
2023/12/11 08:31:35;;;;;;;6.35;1.52;;;8.80;99.90;;;;;;5057760;28;20036;-82
2023/12/11 08:34:01;;;;;;;2.95;1.67;;;8.80;99.90;;;;;;5084873;28;20071;-82
2023/12/11 08:36:28;;;;;;;4.90;1.73;;;8.80;99.90;;;;;;5069739;28;20039;-82
2023/12/11 08:38:53;;;;;;;5.05;1.00;;;8.80;99.90;;;;;;5055491;28;20103;-82
2023/12/11 08:41:19;;;;;;;4.00;1.00;;;8.90;99.90;;;;;;5076577;28;20040;-82
2023/12/11 08:43:46;;;;;;;5.97;2.42;;;8.90;99.90;;;;;;5051189;28;20032;-82
2023/12/11 08:46:12;;;;;;;3.58;2.00;;;8.90;99.90;;;;;;5061069;28;20083;-82
2023/12/11 08:48:38;;;;;;;5.60;1.33;;;8.90;99.90;;;;;;5058665;28;20039;-82
2023/12/11 08:51:05;;;;;;;13.27;2.33;;;9.00;99.90;;;;;;5056637;28;20042;-83
2023/12/11 08:53:31;;;;;;;9.30;3.45;;;9.00;99.90;;;;;;5057983;28;20054;-82
2023/12/11 08:55:57;;;;;;;5.53;2.15;;;9.00;99.90;;;;;;5091056;28;20546;-82
2023/12/11 08:58:24;;;;;;;6.28;1.13;;;9.00;99.90;;;;;;5055502;28;20132;-82
2023/12/11 09:00:50;;;;;;;2.40;1.55;;;9.00;99.90;;;;;;5047806;28;20032;-82
2023/12/11 09:03:16;;;;;;;4.45;1.02;;;9.00;99.90;;;;;;5071475;28;20036;-83
2023/12/11 09:05:42;;;;;;;7.93;1.85;;;9.00;99.90;;;;;;5058459;28;20436;-83
2023/12/11 09:08:09;;;;;;;6.25;0.85;;;9.10;99.90;;;;;;5091089;28;20047;-83
2023/12/11 09:10:38;;;;;;;4.57;0.85;;;9.10;99.90;;;;;;5055287;28;20044;-83
2023/12/11 09:13:04;;;;;;;1.33;0.43;;;9.20;99.90;;;;;;5046065;28;20044;-83
2023/12/11 09:15:31;;;;;;;4.68;0.60;;;9.20;99.90;;;;;;5057892;28;20298;-83
2023/12/11 09:17:57;;;;;;;3.92;0.88;;;9.20;99.90;;;;;;5074133;28;20544;-83
2023/12/11 09:20:23;;;;;;;4.25;1.52;;;9.30;99.90;;;;;;5066037;28;20044;-83
2023/12/11 09:22:48;;;;;;;2.90;0.88;;;9.30;99.90;;;;;;5090077;28;20048;-83
2023/12/11 09:25:14;;;;;;;1.60;0.57;;;9.40;99.90;;;;;;5073670;28;20036;-83
2023/12/11 09:27:40;;;;;;;4.45;1.00;;;9.40;99.90;;;;;;5090988;28;20040;-83
2023/12/11 09:30:10;;;;;;;4.05;0.63;;;9.40;99.90;;;;;;5052020;28;20554;-83
2023/12/11 09:32:36;;;;;;;0.63;0.32;;;9.50;99.90;;;;;;5053291;28;20040;-83
2023/12/11 09:35:02;;;;;;;5.70;1.27;;;9.50;99.90;;;;;;5072778;28;20043;-83
2023/12/11 09:37:28;;;;;;;3.97;0.52;;;9.50;99.90;;;;;;5052591;28;20032;-83
2023/12/11 09:39:54;;;;;;;9.68;1.05;;;9.50;99.90;;;;;;5054985;28;20055;-83
2023/12/11 09:42:20;;;;;;;4.95;0.70;;;9.50;99.90;;;;;;5055062;28;20429;-83
2023/12/11 09:44:48;;;;;;;4.93;1.00;;;9.50;99.90;;;;;;5054199;28;20059;-83
2023/12/11 09:47:31;;;;;;;6.55;1.85;;;9.50;99.90;;;;;;5041795;28;20036;-83
2023/12/11 09:49:57;;;;;;;7.85;0.75;;;9.50;99.90;;;;;;5067447;28;20032;-83
2023/12/11 09:52:23;;;;;;;8.32;1.13;;;9.50;99.90;;;;;;5048060;28;20040;-83
2023/12/11 09:54:49;;;;;;;8.15;0.77;;;9.60;99.90;;;;;;5041654;28;20048;-83
2023/12/11 09:57:16;;;;;;;4.25;0.85;;;9.60;99.90;;;;;;5051647;28;20086;-83
2023/12/11 09:59:42;;;;;;;10.95;1.98;;;9.60;99.90;;;;;;5053034;28;20114;-83
2023/12/11 10:02:17;;;;;;;5.82;0.95;;;9.60;99.90;;;;;;5073146;28;20098;-83
2023/12/11 10:05:05;;;;;;;7.13;1.58;;;9.60;99.90;;;;;;5041433;28;20032;-83
2023/12/11 10:07:35;;;;;;;3.35;0.75;;;9.60;99.90;;;;;;5069644;28;20038;-83
2023/12/11 10:10:15;;;;;;;;;;;9.50;99.90;;;;;;5066099;28;20040;-83
2023/12/11 10:12:42;;;;;;;15.23;1.48;;;9.50;99.90;;;;;;5056507;28;19916;-83
2023/12/11 10:15:08;;;;;;;4.43;1.33;;;9.40;99.90;;;;;;5052597;28;20119;-83
2023/12/11 10:17:34;;;;;;;12.80;1.52;;;9.40;99.90;;;;;;5045354;28;20090;-83
2023/12/11 10:20:00;;;;;;;10.90;1.38;;;9.40;99.90;;;;;;5037456;28;20032;-83
2023/12/11 10:22:27;;;;;;;9.00;1.17;;;9.40;99.90;;;;;;5050800;28;20051;-83
2023/12/11 10:24:54;;;;;;;5.57;1.23;;;9.40;99.90;;;;;;5051439;28;20040;-83
2023/12/11 10:27:24;;;;;;;7.53;1.00;;;9.40;99.90;;;;;;5049855;28;20119;-82
2023/12/11 10:30:11;;;;;;;;;;;9.30;99.90;;;;;;5064229;28;20048;-82
2023/12/11 10:32:38;;;;;;;7.13;1.02;;;9.30;99.90;;;;;;5056341;28;20427;-82
2023/12/11 10:35:05;;;;;;;7.82;1.55;;;9.30;99.90;;;;;;5087018;28;20029;-82
2023/12/11 10:37:34;;;;;;;12.68;1.20;;;9.30;99.90;;;;;;5055518;28;20054;-82
2023/12/11 10:40:02;;;;;;;14.50;2.10;;;9.30;99.90;;;;;;5075583;28;20088;-82
2023/12/11 10:42:28;;;;;;;6.60;1.33;;;9.30;99.90;;;;;;5058349;28;20074;-82
2023/12/11 10:44:55;;;;;;;5.38;1.25;;;9.40;99.90;;;;;;5059856;28;20039;-82
2023/12/11 10:47:22;;;;;;;8.02;2.03;;;9.40;99.90;;;;;;5084946;28;20036;-82
2023/12/11 10:49:50;;;;;;;4.00;0.88;;;9.40;99.90;;;;;;5076086;28;20055;-82
2023/12/11 10:52:16;;;;;;;1.92;0.55;;;9.50;99.90;;;;;;5051824;28;20071;-82
2023/12/11 10:54:42;;;;;;;3.13;0.55;;;9.40;99.90;;;;;;5070082;28;20041;-83
2023/12/11 10:57:13;;;;;;;2.17;0.80;;;9.50;99.90;;;;;;5062699;28;20267;-82
2023/12/11 10:59:39;;;;;;;7.15;1.17;;;9.40;99.90;;;;;;5093367;28;20124;-82
2023/12/11 11:02:06;;;;;;;7.80;1.80;;;9.40;99.90;;;;;;5059759;28;20397;-82
2023/12/11 11:04:35;;;;;;;3.65;1.48;;;9.40;99.90;;;;;;5056110;28;20101;-82
2023/12/11 11:07:27;;;;;;;11.30;1.38;;;9.40;99.90;;;;;;5092132;28;20032;-82
2023/12/11 11:10:13;;;;;;;8.23;2.53;;;9.40;99.90;;;;;;5051969;28;20048;-82
2023/12/11 11:12:54;;;;;;;4.20;1.38;;;9.40;99.90;;;;;;5074837;28;20079;-83
2023/12/11 11:15:24;;;;;;;3.05;1.13;;;9.40;99.90;;;;;;5071986;28;20043;-83
2023/12/11 11:18:02;;;;;;;10.82;1.77;;;9.40;99.90;;;;;;5056702;28;20079;-83
2023/12/11 11:20:31;;;;;;;4.72;2.63;;;9.30;99.90;;;;;;5099377;28;20032;-83
2023/12/11 11:23:20;;;;;;;8.40;1.42;;;9.30;99.90;;;;;;5078512;28;20079;-83
2023/12/11 11:25:52;;;;;;;10.68;1.10;;;9.30;99.90;;;;;;5061694;28;20040;-83
2023/12/11 11:28:40;;;;;;;10.27;1.90;;;9.30;99.90;;;;;;5070432;28;20737;-83
2023/12/11 11:31:09;;;;;;;3.75;1.15;;;9.30;99.90;;;;;;5056152;28;20037;-83
2023/12/11 11:33:52;;;;;;;5.53;1.80;;;9.30;99.90;;;;;;5050081;28;20410;-82
2023/12/11 11:36:19;;;;;;;5.40;0.52;;;9.30;99.90;;;;;;5049040;28;20043;-82
2023/12/11 11:38:57;;;;;;;8.88;1.58;;;9.30;99.90;;;;;;5056320;28;20124;-82
2023/12/11 11:41:30;;;;;;;14.93;1.48;;;9.30;99.90;;;;;;5057251;28;20557;-82
2023/12/11 11:44:06;;;;;;;4.38;0.85;;;9.30;99.90;;;;;;5051388;28;20036;-82
2023/12/11 11:46:51;;;;;;;4.47;1.52;;;9.40;99.90;;;;;;5061705;28;20036;-82
2023/12/11 11:49:28;;;;;;;1.55;0.60;;;9.40;99.90;;;;;;5075848;28;20525;-82
2023/12/11 11:51:54;;;;;;;6.40;1.83;;;9.40;99.90;;;;;;5060491;28;20089;-82
2023/12/11 11:54:24;;;;;;;5.95;1.42;;;9.40;99.90;;;;;;5046336;28;20066;-83
2023/12/11 11:56:51;;;;;;;3.53;0.63;;;9.40;99.90;;;;;;5050505;28;20064;-83
2023/12/11 11:59:17;;;;;;;4.18;0.75;;;9.50;99.90;;;;;;5064621;28;20051;-82
2023/12/11 12:01:56;;;;;;;2.28;0.75;;;9.60;99.90;;;;;;5068512;28;20310;-82
2023/12/11 12:04:25;;;;;;;8.00;1.63;;;9.50;99.90;;;;;;5041768;28;20037;-82
2023/12/11 12:06:53;;;;;;;5.22;0.85;;;9.50;99.90;;;;;;5075269;28;20047;-82
2023/12/11 12:09:19;;;;;;;2.33;0.45;;;9.50;99.90;;;;;;5052663;28;20039;-82
2023/12/11 12:11:45;;;;;;;4.93;1.60;;;9.60;99.90;;;;;;5070914;28;20032;-83
2023/12/11 12:14:14;;;;;;;3.25;1.05;;;9.60;99.90;;;;;;5049134;28;20067;-82
2023/12/11 12:16:40;;;;;;;3.30;0.60;;;9.50;99.90;;;;;;5051277;28;20058;-83
2023/12/11 12:19:06;;;;;;;2.80;0.40;;;9.50;99.90;;;;;;5043835;28;20166;-82
2023/12/11 12:21:54;;;;;;;2.42;0.45;;;9.40;99.90;;;;;;5071523;28;20552;-82
2023/12/11 12:24:30;;;;;;;2.15;0.95;;;9.40;99.90;;;;;;5057229;28;20035;-82
2023/12/11 12:27:02;;;;;;;1.20;0.43;;;9.30;99.90;;;;;;5077883;28;20108;-82
2023/12/11 12:29:32;;;;;;;7.38;0.50;;;9.20;99.90;;;;;;5059278;28;20093;-82
2023/12/11 12:31:59;;;;;;;1.30;0.68;;;9.20;99.90;;;;;;5054152;28;20132;-82
2023/12/11 12:34:27;;;;;;;1.15;0.63;;;9.20;99.90;;;;;;5065368;28;20090;-82
2023/12/11 12:36:59;;;;;;;1.02;0.30;;;9.30;99.90;;;;;;5049987;28;20118;-82
2023/12/11 12:39:25;;;;;;;6.55;1.20;;;9.40;99.90;;;;;;5066011;28;20265;-82
2023/12/11 12:41:51;;;;;;;1.70;0.40;;;9.50;99.90;;;;;;5082997;28;20631;-82
2023/12/11 12:44:20;;;;;;;4.20;0.82;;;9.60;99.90;;;;;;5076409;28;20028;-82
2023/12/11 12:46:46;;;;;;;5.65;0.40;;;9.60;99.90;;;;;;5065603;28;20099;-82
2023/12/11 12:49:14;;;;;;;1.83;0.93;;;9.50;99.90;;;;;;5063594;28;20564;-82
2023/12/11 12:51:48;;;;;;;0.98;0.20;;;9.50;99.90;;;;;;5053691;28;20063;-82
2023/12/11 12:54:14;;;;;;;3.10;0.45;;;9.50;99.90;;;;;;5066437;28;20074;-82
2023/12/11 12:56:43;;;;;;;3.03;0.40;;;9.50;99.90;;;;;;5053943;28;20060;-82